Time;durP1;ratioP1;P1;durP2;ratioP2;P2;SDS_P1;SDS_P2;PMS_P1;PMS_P2;Temp;Humidity;BMP_temperature;BMP_pressure;BME280_temperature;BME280_humidity;BME280_pressure;Samples;Min_cycle;Max_cycle;Signal;HPM_P1;HPM_P2
2021/12/06 00:00:29;;;;;;;5.72;4.03;;;;;;;;;;5105991;27;20646;-76
2021/12/06 00:02:57;;;;;;;5.85;4.25;;;;;;;;;;5095931;28;20566;-78
2021/12/06 00:05:26;;;;;;;4.20;3.80;;;;;;;;;;5098051;28;20223;-80
2021/12/06 00:07:54;;;;;;;5.35;4.38;;;;;;;;;;5110599;27;20814;-73
2021/12/06 00:10:22;;;;;;;5.38;4.07;;;;;;;;;;5113877;27;20554;-78
2021/12/06 00:12:49;;;;;;;8.57;3.50;;;;;;;;;;5131504;27;20605;-78
2021/12/06 00:15:16;;;;;;;7.95;4.25;;;;;;;;;;5131601;27;20192;-75
2021/12/06 00:17:44;;;;;;;4.70;4.07;;;;;;;;;;5130786;27;20208;-76
2021/12/06 00:20:13;;;;;;;8.82;4.43;;;;;;;;;;5130592;27;20195;-77
2021/12/06 00:22:41;;;;;;;8.10;3.63;;;;;;;;;;5116494;27;20201;-77
2021/12/06 00:25:10;;;;;;;4.25;3.60;;;;;;;;;;5110686;28;20192;-76
2021/12/06 00:27:39;;;;;;;5.15;4.05;;;;;;;;;;5085004;28;20228;-76
2021/12/06 00:30:07;;;;;;;5.38;3.55;;;;;;;;;;5096202;27;20682;-77
2021/12/06 00:32:35;;;;;;;8.52;3.30;;;;;;;;;;5098733;27;20184;-79
2021/12/06 00:35:02;;;;;;;3.90;3.40;;;;;;;;;;5108896;28;20195;-75
2021/12/06 00:37:30;;;;;;;4.18;3.78;;;;;;;;;;5109479;28;20215;-75
2021/12/06 00:39:59;;;;;;;3.97;3.55;;;;;;;;;;5111138;28;20193;-76
2021/12/06 00:42:30;;;;;;;5.53;3.72;;;;;;;;;;5092575;28;20194;-76
2021/12/06 00:44:58;;;;;;;5.05;3.83;;;;;;;;;;5085834;28;20201;-76
2021/12/06 00:47:25;;;;;;;4.20;3.30;;;;;;;;;;5092003;28;20588;-76
2021/12/06 00:49:53;;;;;;;6.05;3.92;;;;;;;;;;5075591;28;20194;-79
2021/12/06 00:52:21;;;;;;;5.45;3.80;;;;;;;;;;5114040;27;20680;-75
2021/12/06 00:54:48;;;;;;;5.68;4.10;;;;;;;;;;5094377;27;20196;-76
2021/12/06 00:57:16;;;;;;;3.90;3.45;;;;;;;;;;5091677;28;20205;-77
2021/12/06 00:59:46;;;;;;;4.00;3.53;;;;;;;;;;5072273;28;20193;-76
2021/12/06 01:02:14;;;;;;;3.85;3.45;;;;;;;;;;5107303;28;20245;-75
2021/12/06 01:04:42;;;;;;;3.67;3.33;;;;;;;;;;5106540;28;20193;-75
2021/12/06 01:07:10;;;;;;;4.93;3.75;;;;;;;;;;5092462;28;20574;-75
2021/12/06 01:09:37;;;;;;;5.82;4.05;;;;;;;;;;5088706;27;20211;-75
2021/12/06 01:12:05;;;;;;;5.75;4.20;;;;;;;;;;5096351;27;20656;-75
2021/12/06 01:14:32;;;;;;;4.50;4.10;;;;;;;;;;5108521;27;20196;-77
2021/12/06 01:17:01;;;;;;;4.82;3.97;;;;;;;;;;5108699;28;20220;-77
2021/12/06 01:19:30;;;;;;;4.80;3.65;;;;;;;;;;5108812;28;20196;-75
2021/12/06 01:22:10;;;;;;;3.83;3.00;;;;;;;;;;5109080;28;20210;-77
2021/12/06 01:24:42;;;;;;;3.83;2.80;;;;;;;;;;5088826;28;20189;-74
2021/12/06 01:27:28;;;;;;;5.82;3.08;;;;;;;;;;5110897;27;20211;-78
2021/12/06 01:30:19;;;;;;;4.15;3.20;;;;;;;;;;5114064;27;20181;-76
2021/12/06 01:40:51;;;;;;;3.55;2.78;;;;;;;;;;5095011;28;20246;-74
2021/12/06 01:43:19;;;;;;;3.70;2.70;;;;;;;;;;5107479;27;20191;-77
2021/12/06 01:45:46;;;;;;;4.47;3.00;;;;;;;;;;5114357;27;20199;-76
2021/12/06 01:48:14;;;;;;;3.78;3.00;;;;;;;;;;5124714;27;20226;-78
2021/12/06 01:50:42;;;;;;;4.65;3.22;;;;;;;;;;5111415;27;20210;-77
2021/12/06 01:53:09;;;;;;;4.55;4.10;;;;;;;;;;5109119;28;20196;-75
2021/12/06 01:55:38;;;;;;;6.13;3.38;;;;;;;;;;5109227;28;20192;-78
2021/12/06 01:58:06;;;;;;;6.10;4.18;;;;;;;;;;5099314;28;20224;-76
2021/12/06 02:00:35;;;;;;;4.20;3.70;;;;;;;;;;5115969;27;20189;-76
2021/12/06 02:03:02;;;;;;;4.70;3.50;;;;;;;;;;5115517;27;20219;-76
2021/12/06 02:05:31;;;;;;;4.68;4.10;;;;;;;;;;5106799;28;20185;-76
2021/12/06 02:07:58;;;;;;;4.78;4.15;;;;;;;;;;5088159;28;20589;-75
2021/12/06 02:10:27;;;;;;;6.07;4.03;;;;;;;;;;5087251;28;20188;-74
2021/12/06 02:12:55;;;;;;;5.60;4.07;;;;;;;;;;5068359;28;20631;-78
2021/12/06 02:15:35;;;;;;;4.28;3.60;;;;;;;;;;5097257;28;20657;-75
2021/12/06 02:18:07;;;;;;;5.85;4.68;;;;;;;;;;5099258;28;20219;-75
2021/12/06 02:20:43;;;;;;;4.88;3.88;;;;;;;;;;5110160;28;20624;-76
2021/12/06 02:23:12;;;;;;;5.38;3.92;;;;;;;;;;5108196;28;20192;-76
2021/12/06 02:25:39;;;;;;;7.57;4.22;;;;;;;;;;5108417;28;20198;-75
2021/12/06 02:28:07;;;;;;;6.30;4.88;;;;;;;;;;5088317;28;20236;-77
2021/12/06 02:30:34;;;;;;;5.40;4.88;;;;;;;;;;5088994;28;20205;-76
2021/12/06 02:33:01;;;;;;;8.32;4.82;;;;;;;;;;5072368;28;20219;-76
2021/12/06 02:35:29;;;;;;;7.55;4.68;;;;;;;;;;5089608;28;20225;-76
2021/12/06 02:37:56;;;;;;;7.95;4.50;;;;;;;;;;5100797;28;20216;-77
2021/12/06 02:40:26;;;;;;;7.15;5.30;;;;;;;;;;5115879;28;20185;-76
2021/12/06 02:42:54;;;;;;;7.75;6.10;;;;;;;;;;5107240;28;20199;-79
2021/12/06 02:45:24;;;;;;;7.40;5.47;;;;;;;;;;5090092;28;20200;-75
2021/12/06 02:47:53;;;;;;;7.60;5.47;;;;;;;;;;5074768;28;20247;-76
2021/12/06 02:50:21;;;;;;;7.93;5.85;;;;;;;;;;5092808;28;20225;-76
2021/12/06 02:52:48;;;;;;;5.90;5.22;;;;;;;;;;5092631;28;20517;-76
2021/12/06 02:55:30;;;;;;;8.43;5.32;;;;;;;;;;5101052;28;20196;-77
2021/12/06 02:57:59;;;;;;;5.68;5.03;;;;;;;;;;5116243;28;20213;-74
2021/12/06 03:00:27;;;;;;;6.93;5.10;;;;;;;;;;5116235;27;20477;-76
2021/12/06 03:02:54;;;;;;;7.20;5.30;;;;;;;;;;5116375;27;20223;-78
2021/12/06 03:05:21;;;;;;;6.63;5.10;;;;;;;;;;5129579;27;20196;-78
2021/12/06 03:07:53;;;;;;;5.88;4.97;;;;;;;;;;5095068;28;20225;-75
2021/12/06 03:10:20;;;;;;;7.40;4.60;;;;;;;;;;5092142;28;20250;-78
2021/12/06 03:12:48;;;;;;;6.15;4.75;;;;;;;;;;5091473;28;20201;-76
2021/12/06 03:15:16;;;;;;;5.18;4.68;;;;;;;;;;5104824;28;20197;-74
2021/12/06 03:17:45;;;;;;;7.75;4.40;;;;;;;;;;5117617;27;20200;-73
2021/12/06 03:20:14;;;;;;;6.32;5.03;;;;;;;;;;5099519;27;20200;-78
2021/12/06 03:22:41;;;;;;;7.57;5.53;;;;;;;;;;5110090;28;20291;-74
2021/12/06 03:25:09;;;;;;;5.13;4.63;;;;;;;;;;5111290;28;20196;-77
2021/12/06 03:27:36;;;;;;;5.80;4.75;;;;;;;;;;5092641;28;20209;-76
2021/12/06 03:30:04;;;;;;;5.75;4.70;;;;;;;;;;5112017;28;20572;-78
2021/12/06 03:32:33;;;;;;;5.70;4.57;;;;;;;;;;5114505;27;20547;-77
2021/12/06 03:35:01;;;;;;;6.20;4.93;;;;;;;;;;5116397;27;20197;-74
2021/12/06 03:37:28;;;;;;;7.22;4.75;;;;;;;;;;5125017;27;20207;-75
2021/12/06 03:39:55;;;;;;;7.28;5.25;;;;;;;;;;5130928;27;20199;-76
2021/12/06 03:42:24;;;;;;;7.15;4.70;;;;;;;;;;5132133;27;20601;-78
2021/12/06 03:44:51;;;;;;;5.70;5.00;;;;;;;;;;5112603;27;20646;-80
2021/12/06 03:47:20;;;;;;;6.38;5.35;;;;;;;;;;5104494;28;20228;-76
2021/12/06 03:49:49;;;;;;;6.82;5.28;;;;;;;;;;5100512;27;20220;-77
2021/12/06 03:52:16;;;;;;;6.60;4.47;;;;;;;;;;5114729;27;20577;-74
2021/12/06 03:54:44;;;;;;;6.47;4.80;;;;;;;;;;5110531;28;20188;-79
2021/12/06 03:57:12;;;;;;;6.00;4.80;;;;;;;;;;5109464;28;20701;-78
2021/12/06 03:59:40;;;;;;;5.78;4.50;;;;;;;;;;5107522;28;20203;-79
2021/12/06 04:02:07;;;;;;;5.72;5.22;;;;;;;;;;5109962;28;20239;-78
2021/12/06 04:04:34;;;;;;;6.45;4.50;;;;;;;;;;5104662;27;20272;-76
2021/12/06 04:07:03;;;;;;;5.80;4.88;;;;;;;;;;5113470;27;20216;-76
2021/12/06 04:09:30;;;;;;;9.98;5.15;;;;;;;;;;5109582;27;20216;-77
2021/12/06 04:11:58;;;;;;;6.63;5.10;;;;;;;;;;5109019;28;20192;-79
2021/12/06 04:14:25;;;;;;;8.55;5.00;;;;;;;;;;5110830;28;20559;-75
2021/12/06 04:16:53;;;;;;;5.00;4.50;;;;;;;;;;5109703;28;20217;-78
2021/12/06 04:19:20;;;;;;;5.53;4.68;;;;;;;;;;5102230;28;20193;-78
2021/12/06 04:21:48;;;;;;;7.00;4.93;;;;;;;;;;5117191;27;20188;-74
2021/12/06 04:24:17;;;;;;;7.25;5.10;;;;;;;;;;5102059;27;20199;-75
2021/12/06 04:26:45;;;;;;;7.95;5.22;;;;;;;;;;5130735;27;20208;-80
2021/12/06 04:29:13;;;;;;;7.22;5.53;;;;;;;;;;5130117;27;20227;-75
2021/12/06 04:31:42;;;;;;;8.82;4.82;;;;;;;;;;5113654;27;20198;-76
2021/12/06 04:34:09;;;;;;;9.85;5.10;;;;;;;;;;5119861;27;20193;-79
2021/12/06 04:36:36;;;;;;;6.63;4.88;;;;;;;;;;5093463;28;20244;-78
2021/12/06 04:39:05;;;;;;;6.82;5.68;;;;;;;;;;5092140;28;20194;-76
2021/12/06 04:41:33;;;;;;;6.80;5.25;;;;;;;;;;5074631;28;20192;-77
2021/12/06 04:44:01;;;;;;;9.13;4.97;;;;;;;;;;5116224;27;20193;-78
2021/12/06 04:46:28;;;;;;;7.10;4.90;;;;;;;;;;5120042;27;20548;-78
2021/12/06 04:48:55;;;;;;;6.28;5.25;;;;;;;;;;5130419;27;20224;-76
2021/12/06 04:51:22;;;;;;;7.72;5.32;;;;;;;;;;5127599;27;20238;-81
2021/12/06 04:53:50;;;;;;;6.78;5.47;;;;;;;;;;5110340;28;20201;-80
2021/12/06 04:56:19;;;;;;;6.63;5.18;;;;;;;;;;5107739;28;20203;-78
2021/12/06 04:58:52;;;;;;;6.45;4.75;;;;;;;;;;5090114;28;20197;-77
2021/12/06 05:01:20;;;;;;;5.88;4.25;;;;;;;;;;5096382;28;20200;-76
2021/12/06 05:03:48;;;;;;;5.88;4.75;;;;;;;;;;5109830;27;20227;-76
2021/12/06 05:06:17;;;;;;;8.13;5.65;;;;;;;;;;5093873;27;20185;-78
2021/12/06 05:08:46;;;;;;;4.72;4.18;;;;;;;;;;5113781;27;20345;-81
2021/12/06 05:11:14;;;;;;;6.30;5.30;;;;;;;;;;5106749;28;20227;-79
2021/12/06 05:13:43;;;;;;;6.18;4.97;;;;;;;;;;5088272;28;20189;-81
2021/12/06 05:16:11;;;;;;;6.30;4.75;;;;;;;;;;5101500;28;20220;-79
2021/12/06 05:18:39;;;;;;;5.32;4.45;;;;;;;;;;5104489;28;20682;-79
2021/12/06 05:21:06;;;;;;;6.30;5.03;;;;;;;;;;5072933;28;20207;-75
2021/12/06 05:23:34;;;;;;;10.20;7.07;;;;;;;;;;5090687;27;20200;-75
2021/12/06 05:26:02;;;;;;;7.07;5.47;;;;;;;;;;5114510;27;20225;-77
2021/12/06 05:28:32;;;;;;;8.93;6.05;;;;;;;;;;5109411;27;20688;-75
2021/12/06 05:30:59;;;;;;;11.23;5.53;;;;;;;;;;5129504;27;20200;-80
2021/12/06 05:33:30;;;;;;;7.93;5.90;;;;;;;;;;5102065;27;20189;-75
2021/12/06 05:35:58;;;;;;;5.50;4.60;;;;;;;;;;5089409;28;20193;-77
2021/12/06 05:38:26;;;;;;;8.43;5.97;;;;;;;;;;5091032;27;20221;-77
2021/12/06 05:40:53;;;;;;;10.05;7.07;;;;;;;;;;5110198;27;20639;-76
2021/12/06 05:43:21;;;;;;;8.23;6.28;;;;;;;;;;5113540;27;20184;-76
2021/12/06 05:45:49;;;;;;;8.82;6.18;;;;;;;;;;5109301;28;20574;-78
2021/12/06 05:48:16;;;;;;;8.73;6.03;;;;;;;;;;5108905;28;20274;-75
2021/12/06 05:50:46;;;;;;;7.53;6.70;;;;;;;;;;5109731;28;20193;-77
2021/12/06 05:53:14;;;;;;;8.35;7.15;;;;;;;;;;5090725;28;20680;-78
2021/12/06 05:55:42;;;;;;;11.07;6.90;;;;;;;;;;5106717;27;20220;-77
2021/12/06 05:58:10;;;;;;;11.02;5.95;;;;;;;;;;5094553;27;20712;-74
2021/12/06 06:00:39;;;;;;;6.78;5.85;;;;;;;;;;5100939;28;20231;-79
2021/12/06 06:03:07;;;;;;;7.72;6.22;;;;;;;;;;5080184;28;20324;-77
2021/12/06 06:05:35;;;;;;;8.70;6.45;;;;;;;;;;5066977;28;20190;-77
2021/12/06 06:08:04;;;;;;;9.35;7.45;;;;;;;;;;5069656;28;20225;-76
2021/12/06 06:10:31;;;;;;;7.60;6.05;;;;;;;;;;5060134;28;20230;-75
2021/12/06 06:12:59;;;;;;;8.60;5.88;;;;;;;;;;5051037;28;20587;-76
2021/12/06 06:15:28;;;;;;;7.13;6.10;;;;;;;;;;5050510;28;20195;-76
2021/12/06 06:17:56;;;;;;;8.88;6.03;;;;;;;;;;5048843;28;20203;-77
2021/12/06 06:20:26;;;;;;;8.20;6.35;;;;;;;;;;5065305;28;20194;-76
2021/12/06 06:22:53;;;;;;;11.15;6.78;;;;;;;;;;5075659;28;20194;-76
2021/12/06 06:25:22;;;;;;;10.43;6.50;;;;;;;;;;5066154;28;20614;-76
2021/12/06 06:27:49;;;;;;;10.07;6.85;;;;;;;;;;5056658;28;20214;-75
2021/12/06 06:30:16;;;;;;;10.70;6.82;;;;;;;;;;5051113;28;20222;-78
2021/12/06 06:32:44;;;;;;;8.68;6.20;;;;;;;;;;5052621;28;20206;-77
2021/12/06 06:35:12;;;;;;;10.55;6.65;;;;;;;;;;5051835;28;20195;-77
2021/12/06 06:37:39;;;;;;;8.32;6.72;;;;;;;;;;5052816;28;20571;-81
2021/12/06 06:40:07;;;;;;;8.65;6.80;;;;;;;;;;5054001;28;20198;-75
2021/12/06 06:42:35;;;;;;;9.93;7.00;;;;;;;;;;5054963;28;20198;-81
2021/12/06 06:45:03;;;;;;;13.73;7.88;;;;;;;;;;5054684;28;20197;-77
2021/12/06 06:47:30;;;;;;;9.65;7.47;;;;;;;;;;5050124;28;21566;-79
2021/12/06 06:49:58;;;;;;;10.32;8.25;;;;;;;;;;5055658;28;20214;-80
2021/12/06 06:52:25;;;;;;;7.82;6.82;;;;;;;;;;5055180;28;20559;-76
2021/12/06 06:54:52;;;;;;;8.98;7.40;;;;;;;;;;5051041;28;20414;-82
2021/12/06 06:57:20;;;;;;;10.07;7.80;;;;;;;;;;5050909;28;20354;-80
2021/12/06 06:59:49;;;;;;;11.20;8.20;;;;;;;;;;5051796;28;20323;-78
2021/12/06 07:02:16;;;;;;;9.95;8.02;;;;;;;;;;5052924;28;20663;-80
2021/12/06 07:04:43;;;;;;;13.95;8.23;;;;;;;;;;5074589;28;20535;-81
2021/12/06 07:07:11;;;;;;;10.93;9.82;;;;;;;;;;5074315;28;20221;-80
2021/12/06 07:09:38;;;;;;;13.70;9.65;;;;;;;;;;5068571;28;20573;-77
2021/12/06 07:12:12;;;;;;;11.73;10.23;;;;;;;;;;5053049;28;20222;-74
2021/12/06 07:14:40;;;;;;;13.63;11.38;;;;;;;;;;5058462;28;20202;-76
2021/12/06 07:17:08;;;;;;;12.85;9.98;;;;;;;;;;5051415;28;20215;-75
2021/12/06 07:19:36;;;;;;;14.05;10.57;;;;;;;;;;5050283;28;20278;-76
2021/12/06 07:22:03;;;;;;;17.77;10.88;;;;;;;;;;5063373;28;20202;-76
2021/12/06 07:24:30;;;;;;;16.17;12.07;;;;;;;;;;5069138;28;20586;-77
2021/12/06 07:26:58;;;;;;;17.35;12.65;;;;;;;;;;5057954;28;20229;-79
2021/12/06 07:29:25;;;;;;;19.25;14.23;;;;;;;;;;5056727;28;20230;-79
2021/12/06 07:31:53;;;;;;;19.60;13.50;;;;;;;;;;5054370;28;20198;-76
2021/12/06 07:34:21;;;;;;;22.88;15.00;;;;;;;;;;5070988;28;20194;-79
2021/12/06 07:36:49;;;;;;;23.65;14.93;;;;;;;;;;5052101;28;20215;-78
2021/12/06 07:39:16;;;;;;;29.60;19.08;;;;;;;;;;5051225;28;20229;-82
2021/12/06 07:41:43;;;;;;;32.83;19.42;;;;;;;;;;5061232;28;20194;-79
2021/12/06 07:44:10;;;;;;;27.55;17.92;;;;;;;;;;5056550;28;20206;-77
2021/12/06 07:46:38;;;;;;;36.15;21.08;;;;;;;;;;5051446;28;20198;-79
2021/12/06 07:49:05;;;;;;;35.45;20.80;;;;;;;;;;5052837;28;20282;-78
2021/12/06 07:51:33;;;;;;;35.60;21.90;;;;;;;;;;5051238;28;20222;-77
2021/12/06 07:54:02;;;;;;;37.45;21.05;;;;;;;;;;5056283;28;20198;-81
2021/12/06 07:56:29;;;;;;;41.25;20.95;;;;;;;;;;5067340;28;20190;-79
2021/12/06 07:58:56;;;;;;;33.88;20.10;;;;;;;;;;5050062;28;20194;-78
2021/12/06 08:01:23;;;;;;;37.22;21.80;;;;;;;;;;5056676;28;20672;-77
2021/12/06 08:03:51;;;;;;;36.70;21.08;;;;;;;;;;5093488;27;20231;-74
2021/12/06 08:06:18;;;;;;;36.38;20.52;;;;;;;;;;5107985;27;20192;-75
2021/12/06 08:08:46;;;;;;;34.58;20.60;;;;;;;;;;5091221;28;20197;-79
2021/12/06 08:11:16;;;;;;;39.70;21.05;;;;;;;;;;5090314;28;20801;-75
2021/12/06 08:13:44;;;;;;;37.42;20.52;;;;;;;;;;5104000;28;20189;-78
2021/12/06 08:16:13;;;;;;;37.53;21.35;;;;;;;;;;5087055;27;20193;-77
2021/12/06 08:18:40;;;;;;;38.95;21.85;;;;;;;;;;5116770;27;20215;-77
2021/12/06 08:21:07;;;;;;;41.67;22.77;;;;;;;;;;5107022;27;20192;-76
2021/12/06 08:23:35;;;;;;;35.75;21.10;;;;;;;;;;5109516;28;20181;-77
2021/12/06 08:26:05;;;;;;;46.95;22.52;;;;;;;;;;5099353;28;20196;-78
2021/12/06 08:28:34;;;;;;;35.85;21.60;;;;;;;;;;5081844;28;20197;-75
2021/12/06 08:31:01;;;;;;;38.30;21.35;;;;;;;;;;5091593;28;20304;-77
2021/12/06 08:33:29;;;;;;;33.05;20.13;;;;;;;;;;5114318;27;20653;-80
2021/12/06 08:35:57;;;;;;;33.55;19.30;;;;;;;;;;5100753;27;20208;-77
2021/12/06 08:38:25;;;;;;;33.38;18.67;;;;;;;;;;5097173;28;20585;-78
2021/12/06 08:40:53;;;;;;;27.55;17.35;;;;;;;;;;5072948;28;20251;-80
2021/12/06 08:43:22;;;;;;;24.25;15.52;;;;;;;;;;5089504;28;20186;-76
2021/12/06 08:45:51;;;;;;;23.50;15.15;;;;;;;;;;5089210;28;20204;-73
2021/12/06 08:48:18;;;;;;;28.83;15.60;;;;;;;;;;5087585;28;20715;-75
2021/12/06 08:50:46;;;;;;;25.00;16.08;;;;;;;;;;5093026;28;20221;-75
2021/12/06 08:53:13;;;;;;;28.08;17.85;;;;;;;;;;5093269;28;20195;-74
2021/12/06 08:55:41;;;;;;;27.13;16.40;;;;;;;;;;5110612;27;20188;-76
2021/12/06 08:58:08;;;;;;;24.90;15.93;;;;;;;;;;5114958;27;20211;-78
2021/12/06 09:00:37;;;;;;;26.27;16.60;;;;;;;;;;5131014;27;20555;-77
2021/12/06 12:55:52;;;;;;;7.80;5.32;;;;;;;;;;5468333;22;20457;-78
2021/12/06 12:58:21;;;;;;;7.07;5.35;;;;;;;;;;5063296;28;20189;-78
2021/12/06 13:00:50;;;;;;;8.00;5.55;;;;;;;;;;5059447;28;20195;-77
2021/12/06 13:03:32;;;;;;;8.23;5.15;;;;;;;;;;5062726;28;20647;-80
2021/12/06 13:06:13;;;;;;;8.63;5.18;;;;;;;;;;5068176;28;20210;-79
2021/12/06 13:08:41;;;;;;;8.60;4.35;;;;;;;;;;5049969;28;20198;-79
2021/12/06 13:11:10;;;;;;;7.70;5.20;;;;;;;;;;5046691;28;20560;-82
2021/12/06 13:13:42;;;;;;;7.95;5.80;;;;;;;;;;5044576;28;20659;-84
2021/12/06 13:16:28;;;;;;;6.30;4.78;;;;;;;;;;5051484;28;20237;-78
2021/12/06 13:19:06;;;;;;;4.55;3.85;;;;;;;;;;5050529;28;20206;-79
2021/12/06 13:21:37;;;;;;;5.25;4.38;;;;;;;;;;5047833;28;20195;-81
2021/12/06 13:24:05;;;;;;;6.20;3.78;;;;;;;;;;5048081;28;20198;-77
2021/12/06 13:26:37;;;;;;;6.78;4.95;;;;;;;;;;5045688;28;20207;-80
2021/12/06 13:29:06;;;;;;;8.10;6.47;;;;;;;;;;5043201;28;20198;-74
2021/12/06 13:31:34;;;;;;;8.63;6.80;;;;;;;;;;5048663;28;20207;-78
2021/12/06 13:34:01;;;;;;;10.05;7.05;;;;;;;;;;5053017;28;20309;-77
2021/12/06 13:36:43;;;;;;;7.57;5.72;;;;;;;;;;5046794;28;20539;-80
2021/12/06 13:39:25;;;;;;;9.43;6.22;;;;;;;;;;5047858;28;20285;-78
2021/12/06 13:41:53;;;;;;;6.47;4.65;;;;;;;;;;5047572;28;20194;-78
2021/12/06 13:44:22;;;;;;;4.75;3.13;;;;;;;;;;5047514;28;20191;-78
2021/12/06 13:46:54;;;;;;;3.25;2.58;;;;;;;;;;5053603;28;20297;-79
2021/12/06 13:49:23;;;;;;;5.38;3.10;;;;;;;;;;5054371;28;20214;-78
2021/12/06 13:51:55;;;;;;;3.25;2.92;;;;;;;;;;5069146;28;20827;-79
2021/12/06 13:54:28;;;;;;;5.30;3.53;;;;;;;;;;5059004;28;20854;-77
2021/12/06 13:56:58;;;;;;;5.45;3.17;;;;;;;;;;5048590;28;20222;-78
2021/12/06 13:59:28;;;;;;;3.08;2.80;;;;;;;;;;5048896;28;20198;-76
2021/12/06 14:02:02;;;;;;;5.28;3.35;;;;;;;;;;5052260;28;20202;-79
2021/12/06 14:04:33;;;;;;;5.30;3.05;;;;;;;;;;5053619;28;20251;-76
2021/12/06 14:07:01;;;;;;;3.53;3.10;;;;;;;;;;5061714;28;20605;-76
2021/12/06 14:09:30;;;;;;;4.60;2.67;;;;;;;;;;5049383;28;20324;-74
2021/12/06 14:12:00;;;;;;;3.60;2.50;;;;;;;;;;5048401;28;20652;-77
2021/12/06 14:14:28;;;;;;;3.88;2.17;;;;;;;;;;5048010;28;20190;-81
2021/12/06 14:16:56;;;;;;;6.70;3.53;;;;;;;;;;5049147;28;20199;-76
2021/12/06 14:19:26;;;;;;;3.83;3.10;;;;;;;;;;5057153;28;20193;-78
2021/12/06 14:21:54;;;;;;;4.40;3.90;;;;;;;;;;5053300;28;20206;-75
2021/12/06 14:24:23;;;;;;;6.55;3.53;;;;;;;;;;5050222;28;20202;-78
2021/12/06 14:26:50;;;;;;;6.00;3.20;;;;;;;;;;5047042;28;20198;-76
2021/12/06 14:29:19;;;;;;;5.88;3.50;;;;;;;;;;5049495;28;20670;-77
2021/12/06 14:34:13;;;;;;;5.30;3.40;;;;;;;;;;5050970;28;20198;-79
2021/12/06 14:36:42;;;;;;;4.10;3.35;;;;;;;;;;5053350;28;20483;-78
2021/12/06 14:39:10;;;;;;;4.00;3.50;;;;;;;;;;5054560;28;20298;-76
2021/12/06 14:41:49;;;;;;;7.07;4.05;;;;;;;;;;5052319;28;20195;-78
2021/12/06 14:44:31;;;;;;;8.00;3.97;;;;;;;;;;5047595;28;20662;-79
2021/12/06 14:46:58;;;;;;;5.05;3.65;;;;;;;;;;5045122;28;20195;-77
2021/12/06 14:49:26;;;;;;;5.55;3.60;;;;;;;;;;5039026;28;20195;-76
2021/12/06 14:51:54;;;;;;;5.05;3.45;;;;;;;;;;5036132;28;20589;-77
2021/12/06 14:54:25;;;;;;;3.67;3.22;;;;;;;;;;5039920;28;20277;-78
2021/12/06 14:56:56;;;;;;;4.65;3.63;;;;;;;;;;5056431;28;20235;-76
2021/12/06 14:59:27;;;;;;;6.25;4.20;;;;;;;;;;5058874;28;20209;-81
2021/12/06 15:01:58;;;;;;;6.05;4.25;;;;;;;;;;5068641;28;20194;-79
2021/12/06 15:04:39;;;;;;;5.65;3.75;;;;;;;;;;5051250;28;20195;-80
2021/12/06 15:07:08;;;;;;;5.88;3.97;;;;;;;;;;5051930;28;20709;-81
2021/12/06 15:09:35;;;;;;;6.40;4.10;;;;;;;;;;5038217;28;20280;-76
2021/12/06 15:12:03;;;;;;;5.43;3.83;;;;;;;;;;5045157;28;20306;-76
2021/12/06 15:14:30;;;;;;;4.50;3.80;;;;;;;;;;5052860;28;20226;-79
2021/12/06 15:16:59;;;;;;;5.78;4.10;;;;;;;;;;5050270;28;20276;-77
2021/12/06 15:19:27;;;;;;;7.15;4.57;;;;;;;;;;5053163;28;20232;-79
2021/12/06 15:21:56;;;;;;;6.97;4.50;;;;;;;;;;5056978;28;20289;-82
2021/12/06 15:24:24;;;;;;;6.20;3.60;;;;;;;;;;5048268;28;20720;-78
2021/12/06 15:26:55;;;;;;;6.93;4.53;;;;;;;;;;5050394;28;20198;-79
2021/12/06 15:29:24;;;;;;;5.50;3.95;;;;;;;;;;5049609;28;20252;-78
2021/12/06 15:31:53;;;;;;;5.60;4.18;;;;;;;;;;5050591;28;20254;-78
2021/12/06 15:34:22;;;;;;;6.28;4.00;;;;;;;;;;5052584;28;20566;-76
2021/12/06 15:36:50;;;;;;;7.28;4.70;;;;;;;;;;5056505;28;20301;-83
2021/12/06 15:39:17;;;;;;;5.45;4.22;;;;;;;;;;5062771;28;20296;-77
2021/12/06 15:41:46;;;;;;;7.45;4.47;;;;;;;;;;5071599;28;20236;-77
2021/12/06 15:44:15;;;;;;;6.50;4.80;;;;;;;;;;5071140;28;20196;-81
2021/12/06 15:46:44;;;;;;;5.53;4.40;;;;;;;;;;5071335;28;20229;-78
2021/12/06 15:49:11;;;;;;;6.70;4.45;;;;;;;;;;5065415;28;20298;-79
2021/12/06 15:51:43;;;;;;;5.88;4.35;;;;;;;;;;5053335;28;20258;-78
2021/12/06 15:54:12;;;;;;;7.15;4.53;;;;;;;;;;5050501;28;20218;-79
2021/12/06 15:56:40;;;;;;;5.97;4.75;;;;;;;;;;5054554;28;20308;-78
2021/12/06 15:59:08;;;;;;;6.50;4.10;;;;;;;;;;5057458;28;20282;-79
2021/12/06 16:01:41;;;;;;;7.05;4.00;;;;;;;;;;5055040;28;20222;-78
2021/12/06 16:04:09;;;;;;;8.13;5.10;;;;;;;;;;5050500;28;20197;-79
2021/12/06 16:06:39;;;;;;;5.60;4.35;;;;;;;;;;5047256;28;20217;-78
2021/12/06 16:09:13;;;;;;;5.10;3.75;;;;;;;;;;5031726;28;20215;-80
2021/12/06 16:11:41;;;;;;;7.57;4.50;;;;;;;;;;5037695;28;20253;-77
2021/12/06 16:14:08;;;;;;;5.90;4.13;;;;;;;;;;5053841;28;20191;-76
2021/12/06 16:16:43;;;;;;;4.20;3.80;;;;;;;;;;5052036;28;20218;-77
2021/12/06 16:19:13;;;;;;;5.13;3.90;;;;;;;;;;5053527;28;20197;-80
2021/12/06 16:21:43;;;;;;;5.15;3.83;;;;;;;;;;5055152;28;20284;-75
2021/12/06 16:24:13;;;;;;;5.32;4.00;;;;;;;;;;5056132;28;20303;-77
2021/12/06 16:26:41;;;;;;;5.13;3.63;;;;;;;;;;5050510;28;20343;-78
2021/12/06 16:29:09;;;;;;;5.53;3.92;;;;;;;;;;5050598;28;20751;-81
2021/12/06 16:31:38;;;;;;;4.57;3.60;;;;;;;;;;5048537;28;20230;-80
2021/12/06 16:34:07;;;;;;;6.38;4.22;;;;;;;;;;5051132;28;20249;-79
2021/12/06 16:36:35;;;;;;;5.57;3.72;;;;;;;;;;5054788;28;20242;-80
2021/12/06 16:39:17;;;;;;;4.65;3.90;;;;;;;;;;5055492;28;20726;-78
2021/12/06 16:41:49;;;;;;;5.22;3.50;;;;;;;;;;5063443;28;20214;-75
2021/12/06 16:44:20;;;;;;;5.28;3.80;;;;;;;;;;5069272;28;20783;-77
2021/12/06 16:46:50;;;;;;;6.32;4.30;;;;;;;;;;5071059;28;20273;-73
2021/12/06 16:49:24;;;;;;;7.03;4.32;;;;;;;;;;5071099;28;20222;-76
2021/12/06 16:51:52;;;;;;;6.25;4.47;;;;;;;;;;5055093;28;20304;-78
2021/12/06 16:54:31;;;;;;;5.43;4.18;;;;;;;;;;5055532;28;20902;-75
2021/12/06 16:57:01;;;;;;;6.20;4.45;;;;;;;;;;5055666;28;20218;-76
2021/12/06 16:59:28;;;;;;;6.35;4.30;;;;;;;;;;5048058;28;20194;-77
2021/12/06 17:02:02;;;;;;;4.60;4.05;;;;;;;;;;5049142;28;20202;-76
2021/12/06 17:04:29;;;;;;;6.72;4.00;;;;;;;;;;5029975;28;20199;-76
2021/12/06 17:06:57;;;;;;;6.35;4.65;;;;;;;;;;5031291;28;20188;-76
2021/12/06 17:09:25;;;;;;;7.03;4.75;;;;;;;;;;5052191;28;20648;-77
2021/12/06 17:11:53;;;;;;;5.55;4.60;;;;;;;;;;5055625;28;20767;-77
2021/12/06 17:14:26;;;;;;;6.65;4.88;;;;;;;;;;5051414;28;20198;-78
2021/12/06 17:16:55;;;;;;;4.35;3.40;;;;;;;;;;5048341;28;20248;-80
2021/12/06 17:19:26;;;;;;;6.90;5.00;;;;;;;;;;5040123;28;20355;-76
2021/12/06 17:22:02;;;;;;;6.20;4.82;;;;;;;;;;5029983;28;20491;-77
2021/12/06 17:24:30;;;;;;;7.35;4.50;;;;;;;;;;5039461;28;20198;-76
2021/12/06 17:26:57;;;;;;;6.93;5.10;;;;;;;;;;5054199;28;20224;-79
2021/12/06 17:29:31;;;;;;;7.80;4.93;;;;;;;;;;5051292;28;20189;-78
2021/12/06 17:32:00;;;;;;;6.93;5.47;;;;;;;;;;5050804;28;20221;-77
2021/12/06 17:34:28;;;;;;;7.00;4.68;;;;;;;;;;5050051;28;20639;-77
2021/12/06 17:36:57;;;;;;;5.95;4.28;;;;;;;;;;5047056;28;20195;-79
2021/12/06 17:39:26;;;;;;;6.28;4.18;;;;;;;;;;5044586;28;20643;-79
2021/12/06 17:41:54;;;;;;;5.40;4.10;;;;;;;;;;5048988;28;20194;-78
2021/12/06 17:44:25;;;;;;;5.43;4.30;;;;;;;;;;5054605;28;20200;-77
2021/12/06 17:46:54;;;;;;;6.45;4.45;;;;;;;;;;5069694;28;20194;-78
2021/12/06 17:49:21;;;;;;;6.47;4.60;;;;;;;;;;5071655;28;20576;-78
2021/12/06 17:52:02;;;;;;;5.30;4.15;;;;;;;;;;5071006;28;20218;-78
2021/12/06 17:54:31;;;;;;;5.28;4.65;;;;;;;;;;5070539;28;20217;-79
2021/12/06 17:57:00;;;;;;;7.88;5.22;;;;;;;;;;5056603;28;20202;-77
2021/12/06 17:59:29;;;;;;;6.80;5.13;;;;;;;;;;5050438;28;20610;-77
2021/12/06 18:01:59;;;;;;;7.07;5.22;;;;;;;;;;5052020;28;20557;-78
2021/12/06 18:04:28;;;;;;;5.97;4.82;;;;;;;;;;5053671;28;21596;-77
2021/12/06 18:06:55;;;;;;;6.85;5.30;;;;;;;;;;5053667;28;20191;-78
2021/12/06 18:09:25;;;;;;;7.93;5.22;;;;;;;;;;5068881;28;20216;-78
2021/12/06 18:11:53;;;;;;;7.15;5.10;;;;;;;;;;5069499;28;20635;-79
2021/12/06 18:14:23;;;;;;;6.53;5.55;;;;;;;;;;5069727;28;20200;-77
2021/12/06 18:16:51;;;;;;;7.32;5.38;;;;;;;;;;5059310;28;20195;-77
2021/12/06 18:19:21;;;;;;;6.57;4.47;;;;;;;;;;5045657;28;20202;-77
2021/12/06 18:21:48;;;;;;;6.13;5.22;;;;;;;;;;5051727;28;20198;-78
2021/12/06 18:24:16;;;;;;;7.65;5.63;;;;;;;;;;5051283;28;20199;-79
2021/12/06 18:26:43;;;;;;;7.25;5.18;;;;;;;;;;5051768;28;20187;-75
2021/12/06 18:29:10;;;;;;;7.63;5.35;;;;;;;;;;5052938;28;20205;-78
2021/12/06 18:31:40;;;;;;;7.85;5.70;;;;;;;;;;5046052;28;20194;-78
2021/12/06 18:34:08;;;;;;;5.95;4.57;;;;;;;;;;5048457;28;20202;-75
2021/12/06 18:36:41;;;;;;;7.13;4.82;;;;;;;;;;5048454;28;20298;-77
2021/12/06 18:39:11;;;;;;;6.97;4.82;;;;;;;;;;5046309;28;20202;-78
2021/12/06 18:41:39;;;;;;;6.57;4.50;;;;;;;;;;5048849;28;20204;-77
2021/12/06 18:44:35;;;;;;;8.07;5.55;;;;;;;;;;5054785;28;20186;-79
2021/12/06 18:47:04;;;;;;;6.45;4.95;;;;;;;;;;5050328;28;20183;-76
2021/12/06 18:49:33;;;;;;;5.82;4.90;;;;;;;;;;5044219;28;20622;-78
2021/12/06 18:52:01;;;;;;;6.65;5.38;;;;;;;;;;5044327;28;20325;-78